sensor_id;sensor_type;location;lat;lon;timestamp;pressure;altitude;pressure_sealevel;temperature;humidity
65880;BME280;52661;51.364;6.054;2022-07-23T00:01:29;101546.69;;;18.30;80.46
65880;BME280;52661;51.364;6.054;2022-07-23T00:03:55;101542.50;;;18.22;80.81
65880;BME280;52661;51.364;6.054;2022-07-23T00:06:21;101549.63;;;18.19;80.55
65880;BME280;52661;51.364;6.054;2022-07-23T00:08:47;101551.72;;;18.11;81.41
65880;BME280;52661;51.364;6.054;2022-07-23T00:11:12;101549.75;;;18.12;81.38
65880;BME280;52661;51.364;6.054;2022-07-23T00:13:37;101556.56;;;18.04;81.33
65880;BME280;52661;51.364;6.054;2022-07-23T00:16:03;101558.13;;;18.05;81.21
65880;BME280;52661;51.364;6.054;2022-07-23T00:18:29;101560.03;;;18.08;81.45
65880;BME280;52661;51.364;6.054;2022-07-23T00:20:54;101553.28;;;17.89;81.96
65880;BME280;52661;51.364;6.054;2022-07-23T00:23:19;101551.53;;;17.99;81.82
65880;BME280;52661;51.364;6.054;2022-07-23T00:25:45;101547.00;;;17.89;82.14
65880;BME280;52661;51.364;6.054;2022-07-23T00:28:11;101552.50;;;17.89;82.03
65880;BME280;52661;51.364;6.054;2022-07-23T00:30:36;101552.91;;;17.87;82.23
65880;BME280;52661;51.364;6.054;2022-07-23T00:33:05;101547.84;;;17.86;82.35
65880;BME280;52661;51.364;6.054;2022-07-23T00:35:35;101550.94;;;17.88;82.46
65880;BME280;52661;51.364;6.054;2022-07-23T00:38:02;101563.59;;;17.82;83.11
65880;BME280;52661;51.364;6.054;2022-07-23T00:40:28;101564.00;;;17.80;83.35
65880;BME280;52661;51.364;6.054;2022-07-23T00:42:54;101555.31;;;17.85;82.90
65880;BME280;52661;51.364;6.054;2022-07-23T00:45:19;101556.91;;;17.83;83.23
65880;BME280;52661;51.364;6.054;2022-07-23T00:47:45;101559.41;;;17.74;83.47
65880;BME280;52661;51.364;6.054;2022-07-23T00:50:11;101555.03;;;17.76;83.50
65880;BME280;52661;51.364;6.054;2022-07-23T00:52:38;101553.97;;;17.70;83.78
65880;BME280;52661;51.364;6.054;2022-07-23T00:55:05;101546.16;;;17.68;83.84
65880;BME280;52661;51.364;6.054;2022-07-23T00:57:31;101552.28;;;17.76;83.50
65880;BME280;52661;51.364;6.054;2022-07-23T00:59:56;101548.38;;;17.77;82.84
65880;BME280;52661;51.364;6.054;2022-07-23T01:02:23;101548.44;;;17.74;82.64
65880;BME280;52661;51.364;6.054;2022-07-23T01:04:49;101549.22;;;17.74;82.66
65880;BME280;52661;51.364;6.054;2022-07-23T01:07:15;101535.47;;;17.74;82.55
65880;BME280;52661;51.364;6.054;2022-07-23T01:09:42;101552.25;;;17.80;82.21
65880;BME280;52661;51.364;6.054;2022-07-23T01:12:08;101544.50;;;17.75;82.50
65880;BME280;52661;51.364;6.054;2022-07-23T01:14:33;101537.16;;;17.68;82.67
65880;BME280;52661;51.364;6.054;2022-07-23T01:16:59;101535.47;;;17.74;82.38
65880;BME280;52661;51.364;6.054;2022-07-23T01:19:24;101530.22;;;17.60;82.76
65880;BME280;52661;51.364;6.054;2022-07-23T01:21:51;101525.28;;;17.75;82.27
65880;BME280;52661;51.364;6.054;2022-07-23T01:24:18;101532.78;;;17.70;82.23
65880;BME280;52661;51.364;6.054;2022-07-23T01:26:47;101533.63;;;17.67;82.56
65880;BME280;52661;51.364;6.054;2022-07-23T01:29:13;101530.63;;;17.58;82.72
65880;BME280;52661;51.364;6.054;2022-07-23T01:31:39;101521.28;;;17.52;82.66
65880;BME280;52661;51.364;6.054;2022-07-23T01:34:05;101525.69;;;17.46;83.04
65880;BME280;52661;51.364;6.054;2022-07-23T01:36:32;101529.69;;;17.42;83.41
65880;BME280;52661;51.364;6.054;2022-07-23T01:38:58;101524.50;;;17.47;83.13
65880;BME280;52661;51.364;6.054;2022-07-23T01:41:23;101529.22;;;17.47;83.05
65880;BME280;52661;51.364;6.054;2022-07-23T01:43:48;101539.25;;;17.30;83.43
65880;BME280;52661;51.364;6.054;2022-07-23T01:46:14;101535.53;;;17.17;84.16
65880;BME280;52661;51.364;6.054;2022-07-23T01:48:39;101542.09;;;17.23;84.01
65880;BME280;52661;51.364;6.054;2022-07-23T01:51:05;101529.38;;;17.09;84.29
65880;BME280;52661;51.364;6.054;2022-07-23T01:53:30;101531.72;;;17.11;84.51
65880;BME280;52661;51.364;6.054;2022-07-23T01:55:59;101534.16;;;17.32;83.49
65880;BME280;52661;51.364;6.054;2022-07-23T01:58:26;101530.25;;;17.30;83.35
65880;BME280;52661;51.364;6.054;2022-07-23T02:00:52;101533.00;;;17.30;83.47
65880;BME280;52661;51.364;6.054;2022-07-23T02:03:17;101528.34;;;17.27;83.20
65880;BME280;52661;51.364;6.054;2022-07-23T02:05:43;101531.50;;;17.25;82.84
65880;BME280;52661;51.364;6.054;2022-07-23T02:08:08;101535.44;;;17.24;82.95
65880;BME280;52661;51.364;6.054;2022-07-23T02:10:34;101526.44;;;17.23;82.98
65880;BME280;52661;51.364;6.054;2022-07-23T02:12:59;101521.44;;;17.42;82.38
65880;BME280;52661;51.364;6.054;2022-07-23T02:15:24;101523.06;;;17.39;82.20
65880;BME280;52661;51.364;6.054;2022-07-23T02:17:50;101519.50;;;17.42;81.95
65880;BME280;52661;51.364;6.054;2022-07-23T02:20:15;101515.75;;;17.29;82.51
65880;BME280;52661;51.364;6.054;2022-07-23T02:22:40;101511.97;;;17.19;82.78
65880;BME280;52661;51.364;6.054;2022-07-23T02:25:06;101523.88;;;17.09;83.35
65880;BME280;52661;51.364;6.054;2022-07-23T02:27:32;101528.63;;;17.05;83.82
65880;BME280;52661;51.364;6.054;2022-07-23T02:29:58;101523.16;;;17.05;83.66
65880;BME280;52661;51.364;6.054;2022-07-23T02:32:23;101530.75;;;16.94;84.26
65880;BME280;52661;51.364;6.054;2022-07-23T02:34:50;101520.41;;;17.05;83.58
65880;BME280;52661;51.364;6.054;2022-07-23T02:37:16;101522.81;;;17.03;83.62
65880;BME280;52661;51.364;6.054;2022-07-23T02:39:41;101519.13;;;17.13;83.36
65880;BME280;52661;51.364;6.054;2022-07-23T02:42:07;101516.13;;;17.31;82.47
65880;BME280;52661;51.364;6.054;2022-07-23T02:44:32;101523.91;;;17.36;82.09
65880;BME280;52661;51.364;6.054;2022-07-23T02:46:57;101519.97;;;17.10;83.00
65880;BME280;52661;51.364;6.054;2022-07-23T02:49:23;101528.25;;;17.07;83.28
65880;BME280;52661;51.364;6.054;2022-07-23T02:51:48;101518.81;;;17.08;83.51
65880;BME280;52661;51.364;6.054;2022-07-23T02:54:13;101522.19;;;17.19;82.88
65880;BME280;52661;51.364;6.054;2022-07-23T02:56:39;101520.00;;;17.07;83.04
65880;BME280;52661;51.364;6.054;2022-07-23T02:59:04;101519.28;;;17.03;83.37
65880;BME280;52661;51.364;6.054;2022-07-23T03:01:30;101520.41;;;17.05;83.14
65880;BME280;52661;51.364;6.054;2022-07-23T03:03:55;101517.16;;;17.14;82.62
65880;BME280;52661;51.364;6.054;2022-07-23T03:06:20;101516.44;;;17.10;82.67
65880;BME280;52661;51.364;6.054;2022-07-23T03:08:46;101530.75;;;16.94;83.11
65880;BME280;52661;51.364;6.054;2022-07-23T03:11:11;101522.75;;;16.77;84.22
65880;BME280;52661;51.364;6.054;2022-07-23T03:13:37;101524.09;;;16.61;84.68
65880;BME280;52661;51.364;6.054;2022-07-23T03:16:03;101527.38;;;16.83;84.03
65880;BME280;52661;51.364;6.054;2022-07-23T03:18:29;101530.00;;;16.90;83.41
65880;BME280;52661;51.364;6.054;2022-07-23T03:20:54;101529.63;;;16.92;83.27
65880;BME280;52661;51.364;6.054;2022-07-23T03:23:20;101530.09;;;16.83;83.46
65880;BME280;52661;51.364;6.054;2022-07-23T03:25:45;101530.16;;;16.80;83.94
65880;BME280;52661;51.364;6.054;2022-07-23T03:28:13;101540.91;;;16.67;84.76
65880;BME280;52661;51.364;6.054;2022-07-23T03:30:40;101538.28;;;16.56;85.40
65880;BME280;52661;51.364;6.054;2022-07-23T03:33:06;101530.63;;;16.75;84.57
65880;BME280;52661;51.364;6.054;2022-07-23T03:35:31;101531.75;;;16.77;84.23
65880;BME280;52661;51.364;6.054;2022-07-23T03:37:56;101532.91;;;16.80;84.08
65880;BME280;52661;51.364;6.054;2022-07-23T03:40:22;101529.06;;;16.73;84.37
65880;BME280;52661;51.364;6.054;2022-07-23T03:42:47;101533.69;;;16.80;83.83
65880;BME280;52661;51.364;6.054;2022-07-23T03:45:12;101529.19;;;16.63;84.54
65880;BME280;52661;51.364;6.054;2022-07-23T03:47:38;101538.28;;;16.53;85.29
65880;BME280;52661;51.364;6.054;2022-07-23T03:50:04;101537.09;;;16.54;85.21
65880;BME280;52661;51.364;6.054;2022-07-23T03:52:29;101533.22;;;16.51;85.21
65880;BME280;52661;51.364;6.054;2022-07-23T03:54:55;101539.13;;;16.46;85.40
65880;BME280;52661;51.364;6.054;2022-07-23T03:57:20;101535.78;;;16.28;86.16
65880;BME280;52661;51.364;6.054;2022-07-23T03:59:45;101541.78;;;16.19;86.74
65880;BME280;52661;51.364;6.054;2022-07-23T04:02:11;101541.03;;;16.15;87.25
65880;BME280;52661;51.364;6.054;2022-07-23T04:04:36;101546.44;;;16.22;86.75
65880;BME280;52661;51.364;6.054;2022-07-23T04:07:01;101548.44;;;16.18;86.92
65880;BME280;52661;51.364;6.054;2022-07-23T04:09:26;101548.03;;;16.20;86.88
65880;BME280;52661;51.364;6.054;2022-07-23T04:11:52;101549.22;;;16.19;86.86
65880;BME280;52661;51.364;6.054;2022-07-23T04:14:17;101549.19;;;16.22;86.33
65880;BME280;52661;51.364;6.054;2022-07-23T04:16:43;101549.56;;;16.21;86.29
65880;BME280;52661;51.364;6.054;2022-07-23T04:19:08;101548.84;;;16.13;86.51
65880;BME280;52661;51.364;6.054;2022-07-23T04:21:34;101545.91;;;15.97;87.55
65880;BME280;52661;51.364;6.054;2022-07-23T04:23:59;101548.56;;;16.04;87.50
65880;BME280;52661;51.364;6.054;2022-07-23T04:26:24;101545.38;;;16.13;87.20
65880;BME280;52661;51.364;6.054;2022-07-23T04:28:50;101556.34;;;16.09;87.31
65880;BME280;52661;51.364;6.054;2022-07-23T04:31:15;101557.56;;;16.05;87.73
65880;BME280;52661;51.364;6.054;2022-07-23T04:33:40;101561.09;;;16.05;87.64
65880;BME280;52661;51.364;6.054;2022-07-23T04:36:06;101566.53;;;16.09;87.57
65880;BME280;52661;51.364;6.054;2022-07-23T04:38:31;101567.28;;;16.13;87.73
65880;BME280;52661;51.364;6.054;2022-07-23T04:40:58;101573.00;;;16.25;86.62
65880;BME280;52661;51.364;6.054;2022-07-23T04:43:23;101577.63;;;16.32;86.27
65880;BME280;52661;51.364;6.054;2022-07-23T04:45:48;101574.00;;;16.46;85.87
65880;BME280;52661;51.364;6.054;2022-07-23T04:48:14;101580.94;;;16.57;85.33
65880;BME280;52661;51.364;6.054;2022-07-23T04:50:39;101584.72;;;16.70;84.69
65880;BME280;52661;51.364;6.054;2022-07-23T04:53:04;101571.16;;;16.56;85.13
65880;BME280;52661;51.364;6.054;2022-07-23T04:55:30;101569.97;;;16.57;85.72
65880;BME280;52661;51.364;6.054;2022-07-23T04:57:55;101577.00;;;16.55;86.20
65880;BME280;52661;51.364;6.054;2022-07-23T05:00:21;101579.44;;;16.49;86.47
65880;BME280;52661;51.364;6.054;2022-07-23T05:02:46;101584.91;;;16.49;86.78
65880;BME280;52661;51.364;6.054;2022-07-23T05:05:11;101584.91;;;16.49;87.17
65880;BME280;52661;51.364;6.054;2022-07-23T05:07:36;101584.09;;;16.52;86.60
65880;BME280;52661;51.364;6.054;2022-07-23T05:10:02;101589.91;;;16.61;86.35
65880;BME280;52661;51.364;6.054;2022-07-23T05:12:27;101589.78;;;16.72;85.88
65880;BME280;52661;51.364;6.054;2022-07-23T05:14:53;101595.13;;;16.83;85.58
65880;BME280;52661;51.364;6.054;2022-07-23T05:17:18;101591.56;;;16.86;85.74
65880;BME280;52661;51.364;6.054;2022-07-23T05:19:43;101595.63;;;16.74;85.88
65880;BME280;52661;51.364;6.054;2022-07-23T05:22:09;101596.47;;;16.71;86.17
65880;BME280;52661;51.364;6.054;2022-07-23T05:24:34;101599.56;;;16.73;86.31
65880;BME280;52661;51.364;6.054;2022-07-23T05:26:59;101614.31;;;16.83;85.49
65880;BME280;52661;51.364;6.054;2022-07-23T05:29:25;101597.50;;;16.81;85.54
65880;BME280;52661;51.364;6.054;2022-07-23T05:31:50;101606.53;;;16.81;85.20
65880;BME280;52661;51.364;6.054;2022-07-23T05:34:15;101615.50;;;16.85;85.23
65880;BME280;52661;51.364;6.054;2022-07-23T05:36:41;101621.09;;;16.75;85.56
65880;BME280;52661;51.364;6.054;2022-07-23T05:39:06;101620.75;;;16.69;86.64
65880;BME280;52661;51.364;6.054;2022-07-23T05:41:31;101621.50;;;16.73;87.02
65880;BME280;52661;51.364;6.054;2022-07-23T05:43:57;101621.06;;;16.78;86.94
65880;BME280;52661;51.364;6.054;2022-07-23T05:46:22;101625.44;;;16.68;86.53
65880;BME280;52661;51.364;6.054;2022-07-23T05:48:47;101621.72;;;16.86;86.87
65880;BME280;52661;51.364;6.054;2022-07-23T05:51:24;101622.53;;;16.83;86.55
65880;BME280;52661;51.364;6.054;2022-07-23T05:53:51;101624.06;;;16.87;86.50
65880;BME280;52661;51.364;6.054;2022-07-23T05:56:17;101626.50;;;16.82;86.41
65880;BME280;52661;51.364;6.054;2022-07-23T05:58:42;101630.38;;;16.84;86.23
65880;BME280;52661;51.364;6.054;2022-07-23T06:01:08;101628.81;;;16.83;85.91
65880;BME280;52661;51.364;6.054;2022-07-23T06:03:34;101630.78;;;16.83;85.70
65880;BME280;52661;51.364;6.054;2022-07-23T06:05:59;101629.25;;;16.82;85.82
65880;BME280;52661;51.364;6.054;2022-07-23T06:08:24;101633.44;;;16.90;85.51
65880;BME280;52661;51.364;6.054;2022-07-23T06:10:50;101640.13;;;16.89;85.87
65880;BME280;52661;51.364;6.054;2022-07-23T06:13:17;101633.78;;;16.95;85.11
65880;BME280;52661;51.364;6.054;2022-07-23T06:15:43;101639.63;;;16.97;85.13
65880;BME280;52661;51.364;6.054;2022-07-23T06:18:09;101632.50;;;17.03;85.72
65880;BME280;52661;51.364;6.054;2022-07-23T06:20:34;101629.72;;;17.07;85.42
65880;BME280;52661;51.364;6.054;2022-07-23T06:22:59;101635.16;;;17.10;85.44
65880;BME280;52661;51.364;6.054;2022-07-23T06:25:25;101640.63;;;17.14;85.08
65880;BME280;52661;51.364;6.054;2022-07-23T06:27:50;101636.25;;;17.16;85.17
65880;BME280;52661;51.364;6.054;2022-07-23T06:30:15;101645.53;;;17.26;84.22
65880;BME280;52661;51.364;6.054;2022-07-23T06:32:42;101643.09;;;17.35;84.33
65880;BME280;52661;51.364;6.054;2022-07-23T06:35:08;101636.38;;;17.40;83.56
65880;BME280;52661;51.364;6.054;2022-07-23T06:37:33;101633.66;;;17.36;84.26
65880;BME280;52661;51.364;6.054;2022-07-23T06:39:58;101640.53;;;17.48;83.52
65880;BME280;52661;51.364;6.054;2022-07-23T06:42:24;101642.47;;;17.51;83.09
65880;BME280;52661;51.364;6.054;2022-07-23T06:44:49;101637.63;;;17.62;82.89
65880;BME280;52661;51.364;6.054;2022-07-23T06:47:14;101642.63;;;17.70;82.65
65880;BME280;52661;51.364;6.054;2022-07-23T06:49:39;101650.13;;;17.66;81.41
65880;BME280;52661;51.364;6.054;2022-07-23T06:52:06;101646.16;;;17.71;80.29
65880;BME280;52661;51.364;6.054;2022-07-23T06:54:32;101648.31;;;17.83;80.48
65880;BME280;52661;51.364;6.054;2022-07-23T06:56:57;101651.72;;;17.91;80.94
65880;BME280;52661;51.364;6.054;2022-07-23T06:59:22;101653.94;;;17.99;79.54
65880;BME280;52661;51.364;6.054;2022-07-23T07:01:47;101652.94;;;18.13;81.17
65880;BME280;52661;51.364;6.054;2022-07-23T07:04:13;101653.44;;;18.08;77.42
65880;BME280;52661;51.364;6.054;2022-07-23T07:06:38;101658.03;;;18.14;76.06
65880;BME280;52661;51.364;6.054;2022-07-23T07:09:03;101662.28;;;18.19;76.30
65880;BME280;52661;51.364;6.054;2022-07-23T07:11:29;101664.25;;;18.18;77.05
65880;BME280;52661;51.364;6.054;2022-07-23T07:13:54;101663.75;;;18.24;78.18
65880;BME280;52661;51.364;6.054;2022-07-23T07:16:19;101664.91;;;18.26;74.63
65880;BME280;52661;51.364;6.054;2022-07-23T07:18:45;101661.25;;;18.33;76.30
65880;BME280;52661;51.364;6.054;2022-07-23T07:21:10;101663.56;;;18.34;76.12
65880;BME280;52661;51.364;6.054;2022-07-23T07:23:36;101666.69;;;18.36;74.58
65880;BME280;52661;51.364;6.054;2022-07-23T07:26:01;101664.00;;;18.33;73.44
65880;BME280;52661;51.364;6.054;2022-07-23T07:28:26;101667.09;;;18.35;73.88
65880;BME280;52661;51.364;6.054;2022-07-23T07:30:52;101666.25;;;18.38;74.53
65880;BME280;52661;51.364;6.054;2022-07-23T07:33:17;101671.28;;;18.43;75.49
65880;BME280;52661;51.364;6.054;2022-07-23T07:35:43;101666.06;;;18.52;76.29
65880;BME280;52661;51.364;6.054;2022-07-23T07:38:08;101670.47;;;18.69;75.24
65880;BME280;52661;51.364;6.054;2022-07-23T07:40:34;101670.53;;;18.65;74.84
65880;BME280;52661;51.364;6.054;2022-07-23T07:42:59;101672.19;;;18.59;73.76
65880;BME280;52661;51.364;6.054;2022-07-23T07:45:25;101677.41;;;18.77;77.68
65880;BME280;52661;51.364;6.054;2022-07-23T07:47:51;101672.25;;;18.79;74.42
65880;BME280;52661;51.364;6.054;2022-07-23T07:50:18;101678.81;;;18.85;73.72
65880;BME280;52661;51.364;6.054;2022-07-23T07:52:44;101675.50;;;18.94;73.36
65880;BME280;52661;51.364;6.054;2022-07-23T07:55:09;101682.13;;;18.96;72.10
65880;BME280;52661;51.364;6.054;2022-07-23T07:57:35;101682.34;;;19.25;69.53
65880;BME280;52661;51.364;6.054;2022-07-23T08:00:01;101687.59;;;19.20;70.63
65880;BME280;52661;51.364;6.054;2022-07-23T08:02:26;101695.97;;;19.12;71.30
65880;BME280;52661;51.364;6.054;2022-07-23T08:04:52;101692.44;;;19.32;71.75
65880;BME280;52661;51.364;6.054;2022-07-23T08:07:18;101698.59;;;19.20;71.52
65880;BME280;52661;51.364;6.054;2022-07-23T08:09:43;101696.59;;;19.40;71.96
65880;BME280;52661;51.364;6.054;2022-07-23T08:12:09;101704.72;;;19.47;72.68
65880;BME280;52661;51.364;6.054;2022-07-23T08:14:34;101695.75;;;19.43;71.91
65880;BME280;52661;51.364;6.054;2022-07-23T08:16:59;101698.00;;;19.68;70.32
65880;BME280;52661;51.364;6.054;2022-07-23T08:19:24;101693.63;;;19.70;73.35
65880;BME280;52661;51.364;6.054;2022-07-23T08:21:50;101695.25;;;19.68;72.95
65880;BME280;52661;51.364;6.054;2022-07-23T08:24:15;101698.09;;;19.64;73.02
65880;BME280;52661;51.364;6.054;2022-07-23T08:26:41;101698.44;;;19.27;68.60
65880;BME280;52661;51.364;6.054;2022-07-23T08:29:06;101693.72;;;19.27;69.54
65880;BME280;52661;51.364;6.054;2022-07-23T08:31:31;101697.03;;;19.38;69.88
65880;BME280;52661;51.364;6.054;2022-07-23T08:33:58;101700.41;;;19.65;69.50
65880;BME280;52661;51.364;6.054;2022-07-23T08:36:23;101698.44;;;19.66;69.23
65880;BME280;52661;51.364;6.054;2022-07-23T08:38:49;101701.19;;;19.66;67.82
65880;BME280;52661;51.364;6.054;2022-07-23T08:41:14;101697.38;;;19.60;67.23
65880;BME280;52661;51.364;6.054;2022-07-23T08:43:41;101696.09;;;19.64;70.67
65880;BME280;52661;51.364;6.054;2022-07-23T08:46:08;101706.91;;;19.55;67.80
65880;BME280;52661;51.364;6.054;2022-07-23T08:48:35;101707.00;;;19.52;67.11
65880;BME280;52661;51.364;6.054;2022-07-23T08:51:04;101699.44;;;19.56;69.06
65880;BME280;52661;51.364;6.054;2022-07-23T08:53:31;101702.97;;;19.56;68.29
65880;BME280;52661;51.364;6.054;2022-07-23T08:56:01;101703.94;;;19.46;67.23
65880;BME280;52661;51.364;6.054;2022-07-23T08:58:30;101706.06;;;19.58;68.24
65880;BME280;52661;51.364;6.054;2022-07-23T09:00:56;101704.44;;;19.61;67.32
65880;BME280;52661;51.364;6.054;2022-07-23T09:03:24;101699.84;;;19.54;67.15
65880;BME280;52661;51.364;6.054;2022-07-23T09:05:50;101703.78;;;19.73;66.85
65880;BME280;52661;51.364;6.054;2022-07-23T09:08:19;101702.59;;;19.90;68.81
65880;BME280;52661;51.364;6.054;2022-07-23T09:10:57;101698.06;;;20.00;67.47
65880;BME280;52661;51.364;6.054;2022-07-23T09:13:47;101713.28;;;20.04;66.46
65880;BME280;52661;51.364;6.054;2022-07-23T09:16:15;101707.03;;;20.04;65.21
65880;BME280;52661;51.364;6.054;2022-07-23T09:21:39;101711.25;;;20.25;66.37
65880;BME280;52661;51.364;6.054;2022-07-23T09:24:12;101714.34;;;20.27;65.97
65880;BME280;52661;51.364;6.054;2022-07-23T09:26:45;101719.97;;;20.39;66.63
65880;BME280;52661;51.364;6.054;2022-07-23T09:29:22;101715.56;;;20.42;66.02
65880;BME280;52661;51.364;6.054;2022-07-23T09:36:46;101713.16;;;20.44;65.71
65880;BME280;52661;51.364;6.054;2022-07-23T09:39:12;101717.66;;;20.38;63.13
65880;BME280;52661;51.364;6.054;2022-07-23T09:41:42;101714.38;;;20.43;64.38
65880;BME280;52661;51.364;6.054;2022-07-23T09:44:16;101716.97;;;20.50;63.38
65880;BME280;52661;51.364;6.054;2022-07-23T09:46:42;101712.72;;;20.61;63.99
65880;BME280;52661;51.364;6.054;2022-07-23T09:49:21;101714.16;;;20.82;64.53
65880;BME280;52661;51.364;6.054;2022-07-23T09:51:55;101711.22;;;20.73;61.03
65880;BME280;52661;51.364;6.054;2022-07-23T09:54:26;101711.91;;;20.77;63.18
65880;BME280;52661;51.364;6.054;2022-07-23T09:56:53;101710.19;;;20.83;62.46
65880;BME280;52661;51.364;6.054;2022-07-23T09:59:23;101708.34;;;20.93;63.00
65880;BME280;52661;51.364;6.054;2022-07-23T10:01:50;101711.53;;;20.91;61.13
65880;BME280;52661;51.364;6.054;2022-07-23T10:04:18;101723.81;;;20.90;62.03
65880;BME280;52661;51.364;6.054;2022-07-23T10:06:45;101715.53;;;20.90;61.55
65880;BME280;52661;51.364;6.054;2022-07-23T10:09:12;101722.38;;;20.98;62.60
65880;BME280;52661;51.364;6.054;2022-07-23T10:11:39;101728.78;;;20.95;61.76
65880;BME280;52661;51.364;6.054;2022-07-23T10:14:04;101714.88;;;20.99;63.05
65880;BME280;52661;51.364;6.054;2022-07-23T10:16:31;101719.41;;;21.05;62.61
65880;BME280;52661;51.364;6.054;2022-07-23T10:18:57;101716.84;;;20.98;58.60
65880;BME280;52661;51.364;6.054;2022-07-23T10:21:39;101709.34;;;21.15;61.38
65880;BME280;52661;51.364;6.054;2022-07-23T10:24:16;101716.75;;;21.18;60.62
65880;BME280;52661;51.364;6.054;2022-07-23T10:27:30;101715.78;;;21.25;60.59
65880;BME280;52661;51.364;6.054;2022-07-23T10:29:55;101715.13;;;21.33;60.48
65880;BME280;52661;51.364;6.054;2022-07-23T10:37:49;101707.84;;;21.39;61.26
65880;BME280;52661;51.364;6.054;2022-07-23T10:40:18;101709.63;;;21.46;60.64
65880;BME280;52661;51.364;6.054;2022-07-23T10:42:45;101711.00;;;21.67;61.70
65880;BME280;52661;51.364;6.054;2022-07-23T10:45:31;101706.00;;;21.74;61.43
65880;BME280;52661;51.364;6.054;2022-07-23T10:48:12;101713.44;;;21.77;59.99
65880;BME280;52661;51.364;6.054;2022-07-23T10:50:39;101710.16;;;21.95;59.71
65880;BME280;52661;51.364;6.054;2022-07-23T10:53:10;101707.16;;;22.02;60.30
65880;BME280;52661;51.364;6.054;2022-07-23T10:55:44;101710.47;;;21.84;58.97
65880;BME280;52661;51.364;6.054;2022-07-23T10:58:11;101712.44;;;21.84;59.48
65880;BME280;52661;51.364;6.054;2022-07-23T11:00:42;101716.47;;;21.95;62.05
65880;BME280;52661;51.364;6.054;2022-07-23T11:03:30;101713.13;;;22.00;60.20
65880;BME280;52661;51.364;6.054;2022-07-23T11:05:57;101714.78;;;21.98;57.38
65880;BME280;52661;51.364;6.054;2022-07-23T11:08:23;101710.81;;;22.12;57.35
65880;BME280;52661;51.364;6.054;2022-07-23T11:10:49;101712.47;;;22.09;56.99
65880;BME280;52661;51.364;6.054;2022-07-23T11:18:54;101701.72;;;22.24;56.70
65880;BME280;52661;51.364;6.054;2022-07-23T11:24:14;101707.91;;;22.28;55.42
65880;BME280;52661;51.364;6.054;2022-07-23T11:26:47;101703.13;;;22.41;58.40
65880;BME280;52661;51.364;6.054;2022-07-23T11:32:33;101708.41;;;22.61;56.27
65880;BME280;52661;51.364;6.054;2022-07-23T11:34:40;101709.63;;;22.60;56.65
65880;BME280;52661;51.364;6.054;2022-07-23T11:37:07;101706.72;;;22.63;56.12
65880;BME280;52661;51.364;6.054;2022-07-23T11:39:34;101714.69;;;22.74;55.57
65880;BME280;52661;51.364;6.054;2022-07-23T11:42:01;101708.59;;;22.66;54.92
65880;BME280;52661;51.364;6.054;2022-07-23T11:44:35;101704.72;;;22.76;55.52
65880;BME280;52661;51.364;6.054;2022-07-23T11:47:08;101701.44;;;22.90;54.53
65880;BME280;52661;51.364;6.054;2022-07-23T11:49:34;101693.78;;;22.94;54.42
65880;BME280;52661;51.364;6.054;2022-07-23T11:54:30;101699.84;;;23.02;54.39
65880;BME280;52661;51.364;6.054;2022-07-23T11:56:59;101698.28;;;23.23;57.04
65880;BME280;52661;51.364;6.054;2022-07-23T11:59:26;101692.75;;;23.23;52.99
65880;BME280;52661;51.364;6.054;2022-07-23T12:02:05;101688.69;;;23.36;54.69
65880;BME280;52661;51.364;6.054;2022-07-23T12:04:48;101690.63;;;23.48;55.74
65880;BME280;52661;51.364;6.054;2022-07-23T12:07:36;101693.31;;;23.39;53.32
65880;BME280;52661;51.364;6.054;2022-07-23T12:10:35;101692.03;;;23.53;52.43
65880;BME280;52661;51.364;6.054;2022-07-23T12:13:04;101696.81;;;23.83;54.78
65880;BME280;52661;51.364;6.054;2022-07-23T12:15:31;101694.78;;;23.84;51.12
65880;BME280;52661;51.364;6.054;2022-07-23T12:17:58;101706.69;;;23.93;49.39
65880;BME280;52661;51.364;6.054;2022-07-23T12:20:26;101699.75;;;23.89;48.78
65880;BME280;52661;51.364;6.054;2022-07-23T12:22:56;101700.69;;;23.95;50.77
65880;BME280;52661;51.364;6.054;2022-07-23T12:25:24;101700.38;;;23.93;50.45
65880;BME280;52661;51.364;6.054;2022-07-23T12:28:13;101703.94;;;23.93;50.74
65880;BME280;52661;51.364;6.054;2022-07-23T12:30:49;101701.59;;;23.92;53.38
65880;BME280;52661;51.364;6.054;2022-07-23T12:33:23;101706.69;;;23.93;52.03
65880;BME280;52661;51.364;6.054;2022-07-23T12:35:49;101700.66;;;24.26;52.00
65880;BME280;52661;51.364;6.054;2022-07-23T12:38:17;101707.94;;;24.41;51.13
65880;BME280;52661;51.364;6.054;2022-07-23T12:40:56;101697.13;;;24.34;50.63
65880;BME280;52661;51.364;6.054;2022-07-23T12:43:27;101695.72;;;24.39;49.84
65880;BME280;52661;51.364;6.054;2022-07-23T12:46:13;101700.72;;;24.62;51.65
65880;BME280;52661;51.364;6.054;2022-07-23T12:51:16;101702.84;;;24.67;48.13
65880;BME280;52661;51.364;6.054;2022-07-23T12:56:13;101694.53;;;24.58;49.27
65880;BME280;52661;51.364;6.054;2022-07-23T12:58:57;101691.00;;;24.48;48.17
65880;BME280;52661;51.364;6.054;2022-07-23T13:01:37;101698.44;;;24.88;48.75
65880;BME280;52661;51.364;6.054;2022-07-23T13:09:14;101681.59;;;25.10;49.42
65880;BME280;52661;51.364;6.054;2022-07-23T13:11:40;101677.50;;;25.29;46.33
65880;BME280;52661;51.364;6.054;2022-07-23T13:14:06;101676.78;;;25.28;48.20
65880;BME280;52661;51.364;6.054;2022-07-23T13:16:32;101675.50;;;25.29;51.11
65880;BME280;52661;51.364;6.054;2022-07-23T13:18:58;101680.91;;;25.33;50.37
65880;BME280;52661;51.364;6.054;2022-07-23T13:21:25;101680.91;;;25.33;48.37
65880;BME280;52661;51.364;6.054;2022-07-23T13:23:51;101682.66;;;25.21;47.66
65880;BME280;52661;51.364;6.054;2022-07-23T13:26:16;101679.44;;;25.14;46.81
65880;BME280;52661;51.364;6.054;2022-07-23T13:28:42;101680.91;;;25.42;47.54